sensor_id;sensor_type;location;lat;lon;timestamp;pressure;altitude;pressure_sealevel;temperature;humidity
48216;BME280;34005;48.844;10.098;2024-03-22T00:01:45;97379.31;;;9.21;64.86
48216;BME280;34005;48.844;10.098;2024-03-22T00:04:10;97382.22;;;9.18;65.07
48216;BME280;34005;48.844;10.098;2024-03-22T00:06:38;97387.56;;;9.17;64.73
48216;BME280;34005;48.844;10.098;2024-03-22T00:09:03;97377.78;;;9.11;64.92
48216;BME280;34005;48.844;10.098;2024-03-22T00:11:30;97378.09;;;9.07;64.85
48216;BME280;34005;48.844;10.098;2024-03-22T00:13:56;97370.72;;;9.03;65.02
48216;BME280;34005;48.844;10.098;2024-03-22T00:16:24;97372.97;;;8.98;65.51
48216;BME280;34005;48.844;10.098;2024-03-22T00:18:49;97362.88;;;8.95;65.33
48216;BME280;34005;48.844;10.098;2024-03-22T00:21:16;97361.53;;;8.91;65.21
48216;BME280;34005;48.844;10.098;2024-03-22T00:23:42;97359.41;;;8.86;65.39
48216;BME280;34005;48.844;10.098;2024-03-22T00:26:09;97358.06;;;8.82;65.35
48216;BME280;34005;48.844;10.098;2024-03-22T00:28:35;97363.56;;;8.79;65.34
48216;BME280;34005;48.844;10.098;2024-03-22T00:31:01;97352.66;;;8.75;65.33
48216;BME280;34005;48.844;10.098;2024-03-22T00:33:28;97349.84;;;8.69;65.38
48216;BME280;34005;48.844;10.098;2024-03-22T00:35:55;97341.66;;;8.63;65.38
48216;BME280;34005;48.844;10.098;2024-03-22T00:38:21;97343.75;;;8.60;65.49
48216;BME280;34005;48.844;10.098;2024-03-22T00:40:47;97343.25;;;8.56;65.47
48216;BME280;34005;48.844;10.098;2024-03-22T00:43:13;97339.16;;;8.54;65.50
48216;BME280;34005;48.844;10.098;2024-03-22T00:45:39;97342.06;;;8.51;65.65
48216;BME280;34005;48.844;10.098;2024-03-22T00:48:06;97343.16;;;8.48;65.47
48216;BME280;34005;48.844;10.098;2024-03-22T00:50:34;97326.25;;;8.44;65.66
48216;BME280;34005;48.844;10.098;2024-03-22T00:52:59;97332.41;;;8.43;65.60
48216;BME280;34005;48.844;10.098;2024-03-22T00:55:28;97328.34;;;8.40;65.67
48216;BME280;34005;48.844;10.098;2024-03-22T00:57:54;97324.22;;;8.38;65.92
48216;BME280;34005;48.844;10.098;2024-03-22T01:00:21;97317.38;;;8.37;66.04
48216;BME280;34005;48.844;10.098;2024-03-22T01:02:46;97314.09;;;8.35;65.51
48216;BME280;34005;48.844;10.098;2024-03-22T01:05:13;97307.28;;;8.34;66.20
48216;BME280;34005;48.844;10.098;2024-03-22T01:07:41;97305.50;;;8.34;65.74
48216;BME280;34005;48.844;10.098;2024-03-22T01:10:07;97296.22;;;8.32;65.71
48216;BME280;34005;48.844;10.098;2024-03-22T01:12:33;97292.28;;;8.28;65.66
48216;BME280;34005;48.844;10.098;2024-03-22T01:15:00;97290.50;;;8.28;66.02
48216;BME280;34005;48.844;10.098;2024-03-22T01:17:26;97290.34;;;8.30;65.85
48216;BME280;34005;48.844;10.098;2024-03-22T01:19:53;97292.63;;;8.33;65.91
48216;BME280;34005;48.844;10.098;2024-03-22T01:22:18;97285.97;;;8.30;65.40
48216;BME280;34005;48.844;10.098;2024-03-22T01:24:46;97289.34;;;8.22;65.41
48216;BME280;34005;48.844;10.098;2024-03-22T01:27:13;97282.66;;;8.20;65.30
48216;BME280;34005;48.844;10.098;2024-03-22T01:29:39;97278.41;;;8.19;65.67
48216;BME280;34005;48.844;10.098;2024-03-22T01:32:05;97276.78;;;8.18;65.68
48216;BME280;34005;48.844;10.098;2024-03-22T01:34:32;97283.25;;;8.14;65.64
48216;BME280;34005;48.844;10.098;2024-03-22T01:36:58;97280.44;;;8.07;65.90
48216;BME280;34005;48.844;10.098;2024-03-22T01:39:25;97279.09;;;8.03;65.97
48216;BME280;34005;48.844;10.098;2024-03-22T01:41:52;97282.81;;;8.00;65.99
48216;BME280;34005;48.844;10.098;2024-03-22T01:44:19;97283.22;;;7.96;65.96
48216;BME280;34005;48.844;10.098;2024-03-22T01:46:45;97286.81;;;7.95;65.97
48216;BME280;34005;48.844;10.098;2024-03-22T01:49:15;97288.19;;;7.89;65.96
48216;BME280;34005;48.844;10.098;2024-03-22T01:51:41;97292.22;;;7.83;65.84
48216;BME280;34005;48.844;10.098;2024-03-22T01:54:09;97286.66;;;7.78;66.05
48216;BME280;34005;48.844;10.098;2024-03-22T01:56:36;97279.81;;;7.77;66.04
48216;BME280;34005;48.844;10.098;2024-03-22T01:59:05;97277.34;;;7.76;66.28
48216;BME280;34005;48.844;10.098;2024-03-22T02:01:31;97274.94;;;7.74;66.12
48216;BME280;34005;48.844;10.098;2024-03-22T02:03:58;97268.91;;;7.74;65.97
48216;BME280;34005;48.844;10.098;2024-03-22T02:06:24;97266.47;;;7.72;65.71
48216;BME280;34005;48.844;10.098;2024-03-22T02:08:51;97269.72;;;7.74;65.57
48216;BME280;34005;48.844;10.098;2024-03-22T02:11:17;97266.16;;;7.75;66.42
48216;BME280;34005;48.844;10.098;2024-03-22T02:13:44;97264.09;;;7.79;66.33
48216;BME280;34005;48.844;10.098;2024-03-22T02:16:11;97259.41;;;7.82;65.80
48216;BME280;34005;48.844;10.098;2024-03-22T02:18:38;97264.31;;;7.86;65.52
48216;BME280;34005;48.844;10.098;2024-03-22T02:21:04;97256.22;;;7.89;65.25
48216;BME280;34005;48.844;10.098;2024-03-22T02:23:33;97256.59;;;7.94;67.40
48216;BME280;34005;48.844;10.098;2024-03-22T02:25:59;97251.19;;;8.05;67.73
48216;BME280;34005;48.844;10.098;2024-03-22T02:28:26;97253.19;;;8.11;65.44
48216;BME280;34005;48.844;10.098;2024-03-22T02:30:52;97238.53;;;8.10;64.82
48216;BME280;34005;48.844;10.098;2024-03-22T02:33:19;97237.22;;;8.06;64.40
48216;BME280;34005;48.844;10.098;2024-03-22T02:35:46;97245.47;;;8.01;64.02
48216;BME280;34005;48.844;10.098;2024-03-22T02:38:12;97241.03;;;7.94;64.24
48216;BME280;34005;48.844;10.098;2024-03-22T02:40:39;97240.94;;;7.86;64.28
48216;BME280;34005;48.844;10.098;2024-03-22T02:43:06;97232.75;;;7.80;64.42
48216;BME280;34005;48.844;10.098;2024-03-22T02:45:33;97230.59;;;7.76;64.67
48216;BME280;34005;48.844;10.098;2024-03-22T02:47:58;97223.94;;;7.73;64.56
48216;BME280;34005;48.844;10.098;2024-03-22T02:50:25;97224.91;;;7.72;64.36
48216;BME280;34005;48.844;10.098;2024-03-22T02:52:51;97220.53;;;7.73;64.84
48216;BME280;34005;48.844;10.098;2024-03-22T02:55:17;97211.94;;;7.72;64.50
48216;BME280;34005;48.844;10.098;2024-03-22T02:57:44;97224.06;;;7.72;64.47
48216;BME280;34005;48.844;10.098;2024-03-22T03:00:11;97215.78;;;7.68;64.18
48216;BME280;34005;48.844;10.098;2024-03-22T03:02:37;97225.50;;;7.66;64.31
48216;BME280;34005;48.844;10.098;2024-03-22T03:05:05;97221.69;;;7.60;64.09
48216;BME280;34005;48.844;10.098;2024-03-22T03:07:31;97217.63;;;7.58;64.42
48216;BME280;34005;48.844;10.098;2024-03-22T03:09:58;97215.03;;;7.58;64.45
48216;BME280;34005;48.844;10.098;2024-03-22T03:12:23;97210.81;;;7.57;64.25
48216;BME280;34005;48.844;10.098;2024-03-22T03:14:51;97212.75;;;7.55;64.51
48216;BME280;34005;48.844;10.098;2024-03-22T03:17:17;97204.28;;;7.53;64.63
48216;BME280;34005;48.844;10.098;2024-03-22T03:19:44;97206.88;;;7.53;64.77
48216;BME280;34005;48.844;10.098;2024-03-22T03:22:09;97200.72;;;7.54;64.63
48216;BME280;34005;48.844;10.098;2024-03-22T03:24:36;97197.44;;;7.52;64.71
48216;BME280;34005;48.844;10.098;2024-03-22T03:27:02;97206.22;;;7.51;64.72
48216;BME280;34005;48.844;10.098;2024-03-22T03:29:28;97199.38;;;7.50;64.57
48216;BME280;34005;48.844;10.098;2024-03-22T03:31:55;97194.47;;;7.47;64.78
48216;BME280;34005;48.844;10.098;2024-03-22T03:34:22;97190.41;;;7.44;64.66
48216;BME280;34005;48.844;10.098;2024-03-22T03:36:48;97181.13;;;7.41;65.15
48216;BME280;34005;48.844;10.098;2024-03-22T03:39:14;97184.81;;;7.39;65.21
48216;BME280;34005;48.844;10.098;2024-03-22T03:41:40;97180.59;;;7.38;64.96
48216;BME280;34005;48.844;10.098;2024-03-22T03:44:07;97178.00;;;7.38;65.41
48216;BME280;34005;48.844;10.098;2024-03-22T03:46:32;97179.00;;;7.37;65.58
48216;BME280;34005;48.844;10.098;2024-03-22T03:49:00;97172.28;;;7.34;65.25
48216;BME280;34005;48.844;10.098;2024-03-22T03:51:26;97171.63;;;7.32;65.45
48216;BME280;34005;48.844;10.098;2024-03-22T03:53:53;97172.72;;;7.30;65.76
48216;BME280;34005;48.844;10.098;2024-03-22T03:56:18;97170.56;;;7.25;66.09
48216;BME280;34005;48.844;10.098;2024-03-22T03:58:45;97170.06;;;7.21;66.17
48216;BME280;34005;48.844;10.098;2024-03-22T04:01:12;97172.66;;;7.21;66.48
48216;BME280;34005;48.844;10.098;2024-03-22T05:01:28;97194.69;;;7.89;65.73
48216;BME280;34005;48.844;10.098;2024-03-22T05:07:56;97201.16;;;7.67;66.79
48216;BME280;34005;48.844;10.098;2024-03-22T05:11:12;97199.75;;;7.55;66.42
48216;BME280;34005;48.844;10.098;2024-03-22T05:15:13;97196.31;;;7.36;66.93
48216;BME280;34005;48.844;10.098;2024-03-22T05:28:07;97185.25;;;7.34;67.37
48216;BME280;34005;48.844;10.098;2024-03-22T05:30:33;97186.91;;;7.35;68.26
48216;BME280;34005;48.844;10.098;2024-03-22T05:33:01;97179.00;;;7.37;67.62
48216;BME280;34005;48.844;10.098;2024-03-22T05:35:27;97174.38;;;7.31;67.62
48216;BME280;34005;48.844;10.098;2024-03-22T05:37:54;97173.03;;;7.27;67.58
48216;BME280;34005;48.844;10.098;2024-03-22T05:40:19;97172.13;;;7.18;67.36
48216;BME280;34005;48.844;10.098;2024-03-22T05:42:46;97167.81;;;7.09;67.59
48216;BME280;34005;48.844;10.098;2024-03-22T05:45:14;97169.34;;;7.01;68.20
48216;BME280;34005;48.844;10.098;2024-03-22T05:47:41;97169.28;;;6.93;68.39
48216;BME280;34005;48.844;10.098;2024-03-22T05:50:07;97164.53;;;6.89;68.39
48216;BME280;34005;48.844;10.098;2024-03-22T05:52:36;97159.47;;;6.87;68.80
48216;BME280;34005;48.844;10.098;2024-03-22T05:55:04;97161.09;;;6.88;69.00
48216;BME280;34005;48.844;10.098;2024-03-22T05:57:32;97157.56;;;6.89;68.97
48216;BME280;34005;48.844;10.098;2024-03-22T06:03:56;97150.16;;;6.94;69.75
48216;BME280;34005;48.844;10.098;2024-03-22T06:06:24;97149.19;;;6.95;69.53
48216;BME280;34005;48.844;10.098;2024-03-22T06:08:51;97149.72;;;6.99;69.63
48216;BME280;34005;48.844;10.098;2024-03-22T06:11:20;97143.56;;;7.00;69.68
48216;BME280;34005;48.844;10.098;2024-03-22T06:13:46;97136.31;;;7.04;70.80
48216;BME280;34005;48.844;10.098;2024-03-22T06:16:13;97137.66;;;7.08;70.64
48216;BME280;34005;48.844;10.098;2024-03-22T06:18:39;97133.22;;;7.18;71.34
48216;BME280;34005;48.844;10.098;2024-03-22T06:21:07;97135.91;;;7.26;70.67
48216;BME280;34005;48.844;10.098;2024-03-22T06:23:33;97126.56;;;7.33;70.46
48216;BME280;34005;48.844;10.098;2024-03-22T06:25:59;97122.09;;;7.43;70.79
48216;BME280;34005;48.844;10.098;2024-03-22T06:28:27;97120.63;;;7.59;71.14
48216;BME280;34005;48.844;10.098;2024-03-22T06:30:54;97118.59;;;7.71;70.80
48216;BME280;34005;48.844;10.098;2024-03-22T06:33:20;97116.88;;;7.79;70.53
48216;BME280;34005;48.844;10.098;2024-03-22T06:35:47;97120.03;;;7.91;70.57
48216;BME280;34005;48.844;10.098;2024-03-22T06:38:14;97116.69;;;7.99;70.17
48216;BME280;34005;48.844;10.098;2024-03-22T06:40:41;97112.50;;;8.06;70.13
48216;BME280;34005;48.844;10.098;2024-03-22T06:43:06;97111.88;;;8.12;70.08
48216;BME280;34005;48.844;10.098;2024-03-22T06:45:34;97107.41;;;8.22;70.10
48216;BME280;34005;48.844;10.098;2024-03-22T06:47:59;97111.06;;;8.38;70.68
48216;BME280;34005;48.844;10.098;2024-03-22T06:50:26;97113.75;;;8.54;70.55
48216;BME280;34005;48.844;10.098;2024-03-22T06:52:52;97119.97;;;8.70;70.29
48216;BME280;34005;48.844;10.098;2024-03-22T06:55:20;97110.28;;;8.80;69.89
48216;BME280;34005;48.844;10.098;2024-03-22T06:57:47;97115.84;;;8.93;70.11
48216;BME280;34005;48.844;10.098;2024-03-22T07:00:14;97113.59;;;9.06;70.44
48216;BME280;34005;48.844;10.098;2024-03-22T07:02:40;97115.22;;;9.16;69.67
48216;BME280;34005;48.844;10.098;2024-03-22T07:05:08;97117.22;;;9.30;70.25
48216;BME280;34005;48.844;10.098;2024-03-22T07:07:34;97118.22;;;9.45;69.17
48216;BME280;34005;48.844;10.098;2024-03-22T07:10:01;97115.59;;;9.62;68.65
48216;BME280;34005;48.844;10.098;2024-03-22T07:12:28;97110.06;;;9.81;68.56
48216;BME280;34005;48.844;10.098;2024-03-22T07:14:55;97115.25;;;9.98;68.81
48216;BME280;34005;48.844;10.098;2024-03-22T07:17:21;97105.78;;;10.13;68.60
48216;BME280;34005;48.844;10.098;2024-03-22T07:19:50;97109.03;;;10.23;67.10
48216;BME280;34005;48.844;10.098;2024-03-22T07:22:16;97104.44;;;10.34;66.70
48216;BME280;34005;48.844;10.098;2024-03-22T07:24:43;97104.72;;;10.47;66.18
48216;BME280;34005;48.844;10.098;2024-03-22T07:27:09;97105.00;;;10.60;65.57
48216;BME280;34005;48.844;10.098;2024-03-22T07:29:37;97103.66;;;10.72;67.53
48216;BME280;34005;48.844;10.098;2024-03-22T07:32:03;97106.81;;;10.91;65.96
48216;BME280;34005;48.844;10.098;2024-03-22T07:34:30;97101.53;;;11.07;65.09
48216;BME280;34005;48.844;10.098;2024-03-22T07:36:55;97103.06;;;11.25;64.48
48216;BME280;34005;48.844;10.098;2024-03-22T07:39:22;97108.97;;;11.42;63.51
48216;BME280;34005;48.844;10.098;2024-03-22T07:41:49;97100.19;;;11.58;63.36
48216;BME280;34005;48.844;10.098;2024-03-22T07:44:15;97100.25;;;11.72;62.48
48216;BME280;34005;48.844;10.098;2024-03-22T07:46:44;97096.03;;;11.86;62.10
48216;BME280;34005;48.844;10.098;2024-03-22T07:49:11;97097.91;;;12.01;61.91
48216;BME280;34005;48.844;10.098;2024-03-22T07:51:36;97089.88;;;12.17;61.84
48216;BME280;34005;48.844;10.098;2024-03-22T07:54:03;97090.63;;;12.41;61.20
48216;BME280;34005;48.844;10.098;2024-03-22T07:56:29;97096.56;;;12.64;60.33
48216;BME280;34005;48.844;10.098;2024-03-22T07:58:55;97098.84;;;12.89;59.87
48216;BME280;34005;48.844;10.098;2024-03-22T08:01:22;97094.72;;;13.16;58.95
48216;BME280;34005;48.844;10.098;2024-03-22T08:03:50;97094.06;;;13.50;57.59
48216;BME280;34005;48.844;10.098;2024-03-22T08:06:16;97094.25;;;13.70;57.29
48216;BME280;34005;48.844;10.098;2024-03-22T08:08:43;97097.88;;;13.69;57.39
48216;BME280;34005;48.844;10.098;2024-03-22T08:11:09;97089.00;;;13.70;57.04
48216;BME280;34005;48.844;10.098;2024-03-22T08:13:35;97093.31;;;13.78;57.47
48216;BME280;34005;48.844;10.098;2024-03-22T08:16:01;97091.28;;;14.01;56.88
48216;BME280;34005;48.844;10.098;2024-03-22T08:18:28;97086.44;;;14.40;55.92
48216;BME280;34005;48.844;10.098;2024-03-22T08:20:55;97081.63;;;14.78;57.36
48216;BME280;34005;48.844;10.098;2024-03-22T08:23:22;97091.31;;;15.59;53.65
48216;BME280;34005;48.844;10.098;2024-03-22T08:25:48;97087.81;;;16.32;52.43
48216;BME280;34005;48.844;10.098;2024-03-22T08:28:15;97085.88;;;17.24;50.76
48216;BME280;34005;48.844;10.098;2024-03-22T08:30:41;97089.69;;;17.60;49.12
48216;BME280;34005;48.844;10.098;2024-03-22T08:33:08;97078.03;;;17.11;50.07
48216;BME280;34005;48.844;10.098;2024-03-22T08:35:34;97074.22;;;16.55;50.55
48216;BME280;34005;48.844;10.098;2024-03-22T08:38:02;97085.03;;;16.14;51.93
48216;BME280;34005;48.844;10.098;2024-03-22T08:40:28;97074.94;;;15.91;52.46
48216;BME280;34005;48.844;10.098;2024-03-22T08:42:55;97073.72;;;15.80;52.72
48216;BME280;34005;48.844;10.098;2024-03-22T08:45:21;97069.66;;;15.71;52.35
48216;BME280;34005;48.844;10.098;2024-03-22T08:47:47;97063.19;;;15.66;52.46
48216;BME280;34005;48.844;10.098;2024-03-22T08:50:13;97059.97;;;15.71;53.32
48216;BME280;34005;48.844;10.098;2024-03-22T08:52:40;97066.84;;;15.92;53.85
48216;BME280;34005;48.844;10.098;2024-03-22T08:55:07;97063.56;;;16.17;52.62
48216;BME280;34005;48.844;10.098;2024-03-22T08:57:34;97060.25;;;16.41;52.00
48216;BME280;34005;48.844;10.098;2024-03-22T08:59:59;97061.19;;;16.67;51.75
48216;BME280;34005;48.844;10.098;2024-03-22T09:02:26;97048.34;;;16.91;51.37
48216;BME280;34005;48.844;10.098;2024-03-22T09:04:52;97047.44;;;17.10;50.43
48216;BME280;34005;48.844;10.098;2024-03-22T09:07:19;97052.78;;;17.28;49.89
48216;BME280;34005;48.844;10.098;2024-03-22T09:09:45;97051.84;;;17.48;49.01
48216;BME280;34005;48.844;10.098;2024-03-22T09:12:13;97052.91;;;17.65;48.39
48216;BME280;34005;48.844;10.098;2024-03-22T09:14:39;97044.47;;;17.82;48.79
48216;BME280;34005;48.844;10.098;2024-03-22T09:17:06;97045.13;;;18.02;47.77
48216;BME280;34005;48.844;10.098;2024-03-22T09:19:32;97042.66;;;18.26;47.18
48216;BME280;34005;48.844;10.098;2024-03-22T09:21:59;97043.81;;;18.48;45.92
48216;BME280;34005;48.844;10.098;2024-03-22T09:24:24;97037.28;;;18.69;45.98
48216;BME280;34005;48.844;10.098;2024-03-22T09:26:51;97033.06;;;18.99;45.12
48216;BME280;34005;48.844;10.098;2024-03-22T09:29:18;97031.06;;;19.24;44.54
48216;BME280;34005;48.844;10.098;2024-03-22T09:31:45;97022.00;;;19.44;43.61
48216;BME280;34005;48.844;10.098;2024-03-22T09:34:11;97022.38;;;19.59;43.64
48216;BME280;34005;48.844;10.098;2024-03-22T09:36:38;97018.50;;;19.73;42.95
48216;BME280;34005;48.844;10.098;2024-03-22T09:39:04;97022.19;;;19.84;42.70
48216;BME280;34005;48.844;10.098;2024-03-22T09:41:32;97025.88;;;19.95;43.59
48216;BME280;34005;48.844;10.098;2024-03-22T09:43:58;97023.69;;;20.04;41.43
48216;BME280;34005;48.844;10.098;2024-03-22T09:46:27;97027.47;;;20.08;40.77
48216;BME280;34005;48.844;10.098;2024-03-22T09:48:54;97023.44;;;20.17;40.87
48216;BME280;34005;48.844;10.098;2024-03-22T09:51:21;97021.59;;;20.17;40.38
48216;BME280;34005;48.844;10.098;2024-03-22T09:53:48;97005.94;;;20.16;40.51
48216;BME280;34005;48.844;10.098;2024-03-22T09:56:17;97010.09;;;20.12;40.79
48216;BME280;34005;48.844;10.098;2024-03-22T09:58:46;97003.53;;;20.14;40.41
48216;BME280;34005;48.844;10.098;2024-03-22T10:01:14;97006.41;;;20.25;40.61
48216;BME280;34005;48.844;10.098;2024-03-22T10:03:42;97006.13;;;20.38;40.33
48216;BME280;34005;48.844;10.098;2024-03-22T10:06:09;96997.56;;;20.60;39.94
48216;BME280;34005;48.844;10.098;2024-03-22T10:08:35;96997.38;;;20.78;39.67
48216;BME280;34005;48.844;10.098;2024-03-22T10:11:02;96985.00;;;20.84;39.67
48216;BME280;34005;48.844;10.098;2024-03-22T10:13:28;96981.66;;;20.88;39.44
48216;BME280;34005;48.844;10.098;2024-03-22T10:15:56;96974.94;;;20.97;39.41
48216;BME280;34005;48.844;10.098;2024-03-22T10:18:22;96980.56;;;21.18;38.55
48216;BME280;34005;48.844;10.098;2024-03-22T10:21:00;96978.66;;;21.30;37.24
48216;BME280;34005;48.844;10.098;2024-03-22T10:23:26;96969.91;;;21.30;38.59
48216;BME280;34005;48.844;10.098;2024-03-22T10:25:53;96955.28;;;21.44;38.07
48216;BME280;34005;48.844;10.098;2024-03-22T10:28:18;96956.88;;;21.62;38.21
48216;BME280;34005;48.844;10.098;2024-03-22T10:30:47;96948.09;;;21.78;37.69
48216;BME280;34005;48.844;10.098;2024-03-22T10:33:15;96949.63;;;21.96;36.82
48216;BME280;34005;48.844;10.098;2024-03-22T10:35:42;96946.25;;;22.01;36.72
48216;BME280;34005;48.844;10.098;2024-03-22T10:38:12;96941.13;;;22.16;36.35
48216;BME280;34005;48.844;10.098;2024-03-22T10:40:42;96944.06;;;22.37;36.32
48216;BME280;34005;48.844;10.098;2024-03-22T10:43:09;96936.69;;;22.44;36.01
48216;BME280;34005;48.844;10.098;2024-03-22T10:45:37;96940.94;;;22.45;35.86
48216;BME280;34005;48.844;10.098;2024-03-22T10:48:07;96932.91;;;22.40;35.49
48216;BME280;34005;48.844;10.098;2024-03-22T10:50:38;96931.50;;;22.32;35.73
48216;BME280;34005;48.844;10.098;2024-03-22T10:53:06;96931.25;;;22.34;34.61
48216;BME280;34005;48.844;10.098;2024-03-22T10:55:38;96930.13;;;22.30;34.48
48216;BME280;34005;48.844;10.098;2024-03-22T10:58:04;96916.56;;;22.26;34.94
48216;BME280;34005;48.844;10.098;2024-03-22T11:00:32;96911.34;;;22.36;35.15
48216;BME280;34005;48.844;10.098;2024-03-22T11:02:59;96915.19;;;22.46;34.77
48216;BME280;34005;48.844;10.098;2024-03-22T11:05:28;96907.94;;;22.41;34.84
48216;BME280;34005;48.844;10.098;2024-03-22T11:08:00;96904.25;;;22.42;34.30
48216;BME280;34005;48.844;10.098;2024-03-22T11:10:30;96899.25;;;22.46;34.94
48216;BME280;34005;48.844;10.098;2024-03-22T11:13:02;96888.41;;;22.52;34.05
48216;BME280;34005;48.844;10.098;2024-03-22T11:15:28;96893.25;;;22.60;34.55
48216;BME280;34005;48.844;10.098;2024-03-22T11:17:54;96888.19;;;22.59;34.81
48216;BME280;34005;48.844;10.098;2024-03-22T11:20:21;96872.47;;;22.52;34.45
48216;BME280;34005;48.844;10.098;2024-03-22T11:22:47;96871.91;;;22.50;35.30
48216;BME280;34005;48.844;10.098;2024-03-22T11:25:14;96871.41;;;22.58;34.82
48216;BME280;34005;48.844;10.098;2024-03-22T11:27:39;96867.56;;;22.71;34.08
48216;BME280;34005;48.844;10.098;2024-03-22T11:30:08;96867.13;;;22.84;33.84
48216;BME280;34005;48.844;10.098;2024-03-22T11:32:34;96857.88;;;22.87;33.90
48216;BME280;34005;48.844;10.098;2024-03-22T11:35:07;96854.69;;;22.90;33.57
48216;BME280;34005;48.844;10.098;2024-03-22T11:37:35;96848.03;;;22.88;33.47
48216;BME280;34005;48.844;10.098;2024-03-22T11:40:02;96849.91;;;22.92;33.94
48216;BME280;34005;48.844;10.098;2024-03-22T11:42:37;96842.50;;;22.99;33.21
48216;BME280;34005;48.844;10.098;2024-03-22T11:45:05;96837.78;;;23.01;32.91
48216;BME280;34005;48.844;10.098;2024-03-22T11:47:35;96837.84;;;23.12;33.01
48216;BME280;34005;48.844;10.098;2024-03-22T11:50:02;96838.44;;;23.24;32.96
48216;BME280;34005;48.844;10.098;2024-03-22T11:52:28;96835.31;;;23.32;32.02
48216;BME280;34005;48.844;10.098;2024-03-22T11:54:56;96833.44;;;23.33;33.04
48216;BME280;34005;48.844;10.098;2024-03-22T11:57:22;96827.94;;;23.44;33.21
48216;BME280;34005;48.844;10.098;2024-03-22T11:59:50;96819.72;;;23.51;31.79
48216;BME280;34005;48.844;10.098;2024-03-22T12:02:17;96821.81;;;23.49;31.97
48216;BME280;34005;48.844;10.098;2024-03-22T12:04:46;96821.56;;;23.51;32.11
48216;BME280;34005;48.844;10.098;2024-03-22T12:07:14;96812.25;;;23.53;32.74
48216;BME280;34005;48.844;10.098;2024-03-22T12:09:40;96806.16;;;23.53;31.62
48216;BME280;34005;48.844;10.098;2024-03-22T12:12:08;96809.31;;;23.50;32.10
48216;BME280;34005;48.844;10.098;2024-03-22T12:14:34;96805.53;;;23.35;31.41
48216;BME280;34005;48.844;10.098;2024-03-22T12:17:01;96799.22;;;23.04;31.27
48216;BME280;34005;48.844;10.098;2024-03-22T12:19:27;96798.53;;;22.87;31.92
48216;BME280;34005;48.844;10.098;2024-03-22T12:21:55;96794.97;;;22.71;32.45
48216;BME280;34005;48.844;10.098;2024-03-22T12:24:21;96786.28;;;22.48;32.86
48216;BME280;34005;48.844;10.098;2024-03-22T12:26:48;96778.22;;;22.38;32.27
48216;BME280;34005;48.844;10.098;2024-03-22T12:29:15;96775.47;;;22.28;32.03
48216;BME280;34005;48.844;10.098;2024-03-22T12:31:42;96776.84;;;22.08;32.69
48216;BME280;34005;48.844;10.098;2024-03-22T12:34:08;96774.22;;;21.86;33.58
48216;BME280;34005;48.844;10.098;2024-03-22T12:36:35;96771.28;;;21.83;33.22
48216;BME280;34005;48.844;10.098;2024-03-22T12:39:02;96762.00;;;21.85;32.29
48216;BME280;34005;48.844;10.098;2024-03-22T12:41:32;96762.75;;;21.80;31.99
48216;BME280;34005;48.844;10.098;2024-03-22T12:44:46;96761.66;;;21.76;32.36
48216;BME280;34005;48.844;10.098;2024-03-22T13:01:25;96728.63;;;21.23;31.85
48216;BME280;34005;48.844;10.098;2024-03-22T13:03:52;96716.44;;;21.05;31.83
48216;BME280;34005;48.844;10.098;2024-03-22T13:06:19;96710.22;;;20.94;32.37
48216;BME280;34005;48.844;10.098;2024-03-22T13:08:46;96702.44;;;20.88;31.27
48216;BME280;34005;48.844;10.098;2024-03-22T13:11:12;96696.34;;;20.87;31.13
48216;BME280;34005;48.844;10.098;2024-03-22T13:13:39;96690.97;;;20.82;30.70
48216;BME280;34005;48.844;10.098;2024-03-22T13:16:05;96688.50;;;20.75;30.66
48216;BME280;34005;48.844;10.098;2024-03-22T13:18:36;96677.97;;;20.64;30.51
48216;BME280;34005;48.844;10.098;2024-03-22T13:21:02;96674.63;;;20.51;30.94
48216;BME280;34005;48.844;10.098;2024-03-22T13:23:30;96665.88;;;20.34;31.43
48216;BME280;34005;48.844;10.098;2024-03-22T13:25:56;96659.69;;;20.28;31.66
48216;BME280;34005;48.844;10.098;2024-03-22T13:28:24;96658.66;;;20.29;31.87
48216;BME280;34005;48.844;10.098;2024-03-22T13:30:59;96655.69;;;20.26;32.63
48216;BME280;34005;48.844;10.098;2024-03-22T13:33:26;96646.56;;;20.16;32.82
48216;BME280;34005;48.844;10.098;2024-03-22T13:35:53;96649.44;;;20.15;33.21
48216;BME280;34005;48.844;10.098;2024-03-22T13:38:20;96637.47;;;20.12;33.25
48216;BME280;34005;48.844;10.098;2024-03-22T13:40:52;96633.38;;;20.05;33.64
48216;BME280;34005;48.844;10.098;2024-03-22T13:43:19;96627.28;;;20.04;33.90
48216;BME280;34005;48.844;10.098;2024-03-22T13:45:46;96619.91;;;20.06;34.55
48216;BME280;34005;48.844;10.098;2024-03-22T13:48:14;96617.81;;;20.08;34.02
48216;BME280;34005;48.844;10.098;2024-03-22T13:50:40;96607.94;;;20.04;34.07
48216;BME280;34005;48.844;10.098;2024-03-22T13:53:08;96602.59;;;19.99;34.32
48216;BME280;34005;48.844;10.098;2024-03-22T13:55:34;96608.34;;;19.95;34.57
48216;BME280;34005;48.844;10.098;2024-03-22T13:58:01;96600.19;;;19.97;34.07
48216;BME280;34005;48.844;10.098;2024-03-22T14:00:27;96600.19;;;19.97;33.99
48216;BME280;34005;48.844;10.098;2024-03-22T14:02:53;96583.50;;;19.96;34.22
48216;BME280;34005;48.844;10.098;2024-03-22T14:05:20;96584.75;;;19.94;34.34
48216;BME280;34005;48.844;10.098;2024-03-22T14:07:49;96590.53;;;19.91;34.18
48216;BME280;34005;48.844;10.098;2024-03-22T14:10:16;96587.56;;;19.87;33.87
48216;BME280;34005;48.844;10.098;2024-03-22T14:12:45;96587.00;;;19.85;34.57
48216;BME280;34005;48.844;10.098;2024-03-22T14:15:10;96579.31;;;19.84;34.88
48216;BME280;34005;48.844;10.098;2024-03-22T14:17:37;96569.19;;;19.81;33.85
48216;BME280;34005;48.844;10.098;2024-03-22T14:20:04;96566.47;;;19.75;34.24
48216;BME280;34005;48.844;10.098;2024-03-22T14:22:37;96557.75;;;19.75;33.93
48216;BME280;34005;48.844;10.098;2024-03-22T14:25:04;96555.66;;;19.77;34.32
48216;BME280;34005;48.844;10.098;2024-03-22T14:27:32;96548.03;;;19.81;34.22